createdAt,value
2018-07-23T00:01:57.131Z,99549.00
2018-07-23T00:04:27.686Z,99552.00
2018-07-23T00:06:58.591Z,99550.00
2018-07-23T00:09:28.936Z,99552.00
2018-07-23T00:11:59.312Z,99551.00
2018-07-23T00:14:30.213Z,99549.00
2018-07-23T00:17:00.299Z,99552.00
2018-07-23T00:19:30.543Z,99553.00
2018-07-23T00:22:01.761Z,99552.00
2018-07-23T00:24:32.091Z,99548.00
2018-07-23T00:27:03.023Z,99551.00
2018-07-23T00:29:33.989Z,99555.00
2018-07-23T00:32:05.168Z,99551.00
2018-07-23T00:34:35.756Z,99553.00
2018-07-23T00:37:06.664Z,99549.00
2018-07-23T00:39:37.279Z,99547.00
2018-07-23T00:42:08.746Z,99549.00
2018-07-23T00:44:39.412Z,99547.00
2018-07-23T00:47:10.331Z,99547.00
2018-07-23T00:49:41.491Z,99546.00
2018-07-23T00:52:11.587Z,99542.00
2018-07-23T00:54:41.797Z,99546.00
2018-07-23T00:57:12.168Z,99546.00
2018-07-23T00:59:42.888Z,99542.00
2018-07-23T01:02:13.579Z,99541.00
2018-07-23T01:04:44.828Z,99546.00
2018-07-23T01:07:15.559Z,99552.00
2018-07-23T01:09:45.899Z,99549.00
2018-07-23T01:12:31.776Z,99545.00
2018-07-23T01:15:02.400Z,99547.00
2018-07-23T01:17:33.107Z,99551.00
2018-07-23T01:20:04.072Z,99550.00
2018-07-23T01:22:34.698Z,99553.00
2018-07-23T01:25:05.431Z,99548.00
2018-07-23T01:27:36.063Z,99553.00
2018-07-23T01:30:06.884Z,99551.00
2018-07-23T01:32:37.803Z,99556.00
2018-07-23T01:35:08.442Z,99551.00
2018-07-23T01:37:39.403Z,99556.00
2018-07-23T01:40:10.272Z,99556.00
2018-07-23T01:42:40.352Z,99555.00
2018-07-23T01:45:11.031Z,99555.00
2018-07-23T01:47:41.426Z,99554.00
2018-07-23T01:50:12.579Z,99554.00
2018-07-23T01:52:42.944Z,99550.00
2018-07-23T01:55:13.816Z,99555.00
2018-07-23T01:57:44.195Z,99555.00
2018-07-23T02:00:15.111Z,99559.00
2018-07-23T02:02:46.083Z,99553.00
2018-07-23T02:05:16.684Z,99559.00
2018-07-23T02:07:47.375Z,99551.00
2018-07-23T02:10:18.044Z,99553.00
2018-07-23T02:12:48.146Z,99555.00
2018-07-23T02:15:18.688Z,99563.00
2018-07-23T02:17:48.779Z,99563.00
2018-07-23T02:20:19.331Z,99559.00
2018-07-23T02:22:50.177Z,99560.00
2018-07-23T02:25:20.223Z,99555.00
2018-07-23T02:27:51.038Z,99559.00
2018-07-23T02:30:21.616Z,99561.00
2018-07-23T02:32:51.985Z,99561.00
2018-07-23T02:35:22.624Z,99568.00
2018-07-23T02:37:53.511Z,99563.00
2018-07-23T02:40:23.835Z,99561.00
2018-07-23T02:42:54.935Z,99558.00
2018-07-23T02:45:26.255Z,99558.00
2018-07-23T02:47:58.176Z,99562.00
2018-07-23T02:50:28.504Z,99565.00
2018-07-23T02:52:59.199Z,99568.00
2018-07-23T02:55:30.064Z,99571.00
2018-07-23T02:58:00.421Z,99567.00
2018-07-23T03:00:30.989Z,99568.00
2018-07-23T03:03:01.612Z,99566.00
2018-07-23T03:05:31.945Z,99565.00
2018-07-23T03:08:02.817Z,99569.00
2018-07-23T03:10:33.411Z,99571.00
2018-07-23T03:13:04.038Z,99574.00
2018-07-23T03:15:35.107Z,99576.00
2018-07-23T03:18:05.745Z,99587.00
2018-07-23T03:20:36.391Z,99586.00
2018-07-23T03:23:07.816Z,99587.00
2018-07-23T03:25:38.423Z,99588.00
2018-07-23T03:28:08.827Z,99586.00
2018-07-23T03:30:39.688Z,99590.00
2018-07-23T03:33:10.058Z,99583.00
2018-07-23T03:35:40.967Z,99590.00
2018-07-23T03:38:11.656Z,99589.00
2018-07-23T03:40:42.227Z,99592.00
2018-07-23T03:43:12.930Z,99594.00
2018-07-23T03:45:43.251Z,99597.00
2018-07-23T03:48:13.613Z,99591.00
2018-07-23T03:50:44.544Z,99596.00
2018-07-23T03:53:15.152Z,99590.00
2018-07-23T03:55:46.456Z,99595.00
2018-07-23T03:58:16.824Z,99599.00
2018-07-23T04:00:47.141Z,99599.00
2018-07-23T04:03:18.004Z,99598.00
2018-07-23T04:05:48.331Z,99600.00
2018-07-23T04:08:19.199Z,99599.00
2018-07-23T04:10:50.047Z,99600.00
2018-07-23T04:13:20.303Z,99599.00
2018-07-23T04:15:50.780Z,99602.00
2018-07-23T04:18:21.387Z,99599.00
2018-07-23T04:20:52.013Z,99603.00
2018-07-23T04:23:22.952Z,99609.00
2018-07-23T04:25:53.295Z,99610.00
2018-07-23T04:28:23.695Z,99615.00
2018-07-23T04:30:54.360Z,99609.00
2018-07-23T04:33:24.720Z,99609.00
2018-07-23T04:35:55.043Z,99610.00
2018-07-23T04:38:25.400Z,99603.00
2018-07-23T04:40:56.036Z,99605.00
2018-07-23T04:43:26.428Z,99609.00
2018-07-23T04:45:57.006Z,99612.00
2018-07-23T04:48:27.704Z,99617.00
2018-07-23T04:50:58.340Z,99624.00
2018-07-23T04:53:28.655Z,99624.00
2018-07-23T04:55:59.245Z,99628.00
2018-07-23T04:58:30.132Z,99626.00
2018-07-23T05:01:00.788Z,99628.00
2018-07-23T05:03:31.395Z,99624.00
2018-07-23T05:06:02.021Z,99623.00
2018-07-23T05:08:32.435Z,99620.00
2018-07-23T05:11:03.723Z,99624.00
2018-07-23T05:13:34.592Z,99630.00
2018-07-23T05:16:04.962Z,99632.00
2018-07-23T05:18:35.731Z,99639.00
2018-07-23T05:21:06.062Z,99640.00
2018-07-23T05:23:36.725Z,99643.00
2018-07-23T05:26:07.589Z,99641.00
2018-07-23T05:28:38.411Z,99640.00
2018-07-23T05:31:08.772Z,99646.00
2018-07-23T05:33:39.167Z,99647.00
2018-07-23T05:36:09.928Z,99648.00
2018-07-23T05:38:40.016Z,99647.00
2018-07-23T05:41:10.635Z,99653.00
2018-07-23T05:43:41.571Z,99657.00
2018-07-23T05:46:12.548Z,99653.00
2018-07-23T05:48:42.608Z,99656.00
2018-07-23T05:51:13.087Z,99658.00
2018-07-23T05:53:43.684Z,99660.00
2018-07-23T05:56:14.232Z,99658.00
2018-07-23T05:58:44.941Z,99661.00
2018-07-23T06:01:15.455Z,99662.00
2018-07-23T06:03:46.609Z,99664.00
2018-07-23T06:06:17.052Z,99669.00
2018-07-23T06:08:48.531Z,99670.00
2018-07-23T06:11:19.136Z,99669.00
2018-07-23T06:13:49.801Z,99666.00
2018-07-23T06:16:20.996Z,99662.00
2018-07-23T06:18:51.309Z,99669.00
2018-07-23T06:21:21.512Z,99669.00
2018-07-23T06:23:52.128Z,99678.00
2018-07-23T06:26:23.013Z,99677.00
2018-07-23T06:28:53.631Z,99679.00
2018-07-23T06:31:24.292Z,99677.00
2018-07-23T06:33:54.692Z,99676.00
2018-07-23T06:36:25.680Z,99679.00
2018-07-23T06:38:55.748Z,99674.00
2018-07-23T06:41:26.190Z,99677.00
2018-07-23T06:43:56.803Z,99678.00
2018-07-23T06:46:27.773Z,99681.00
2018-07-23T06:48:58.127Z,99681.00
2018-07-23T06:51:28.694Z,99683.00
2018-07-23T06:53:59.372Z,99686.00
2018-07-23T06:56:30.159Z,99686.00
2018-07-23T06:59:01.210Z,99685.00
2018-07-23T07:01:31.655Z,99687.00
2018-07-23T07:04:02.005Z,99690.00
2018-07-23T07:06:32.332Z,99690.00
2018-07-23T07:09:03.056Z,99684.00
2018-07-23T07:11:33.980Z,99682.00
2018-07-23T07:14:04.404Z,99690.00
2018-07-23T07:16:34.451Z,99689.00
2018-07-23T07:19:05.218Z,99694.00
2018-07-23T07:21:35.593Z,99694.00
2018-07-23T07:24:06.064Z,99686.00
2018-07-23T07:26:36.904Z,99689.00
2018-07-23T07:29:08.436Z,99693.00
2018-07-23T07:31:38.774Z,99688.00
2018-07-23T07:34:09.471Z,99690.00
2018-07-23T07:36:40.692Z,99691.00
2018-07-23T07:39:12.883Z,99683.00
2018-07-23T07:41:43.217Z,99688.00
2018-07-23T07:44:13.844Z,99686.00
2018-07-23T07:46:44.380Z,99685.00
2018-07-23T07:49:15.323Z,99684.00
2018-07-23T07:51:46.147Z,99686.00
2018-07-23T07:54:17.175Z,99687.00
2018-07-23T07:56:47.791Z,99687.00
2018-07-23T07:59:18.728Z,99677.00
2018-07-23T08:01:49.987Z,99678.00
2018-07-23T08:04:20.660Z,99678.00
2018-07-23T08:06:51.224Z,99673.00
2018-07-23T08:09:21.429Z,99676.00
2018-07-23T08:11:52.624Z,99674.00
2018-07-23T08:14:23.882Z,99668.00
2018-07-23T08:16:54.818Z,99669.00
2018-07-23T08:19:27.659Z,99671.00
2018-07-23T08:21:58.631Z,99675.00
2018-07-23T08:24:30.002Z,99671.00
2018-07-23T08:27:01.253Z,99666.00
2018-07-23T08:29:33.052Z,99671.00
2018-07-23T08:32:04.730Z,99671.00
2018-07-23T08:34:36.011Z,99674.00
2018-07-23T08:37:07.177Z,99677.00
2018-07-23T08:39:38.663Z,99677.00
2018-07-23T08:42:10.008Z,99674.00
2018-07-23T08:44:41.429Z,99667.00
2018-07-23T08:47:13.251Z,99674.00
2018-07-23T08:49:43.847Z,99669.00
2018-07-23T08:52:14.915Z,99666.00
2018-07-23T08:54:46.168Z,99664.00
2018-07-23T08:57:17.278Z,99670.00
2018-07-23T08:59:48.575Z,99669.00
2018-07-23T09:02:19.541Z,99673.00
2018-07-23T09:04:50.816Z,99672.00
2018-07-23T09:07:22.283Z,99679.00
2018-07-23T09:09:53.435Z,99677.00
2018-07-23T09:12:24.336Z,99678.00
2018-07-23T09:14:54.952Z,99672.00
2018-07-23T09:17:25.877Z,99676.00
2018-07-23T09:19:58.097Z,99674.00
2018-07-23T09:22:28.722Z,99675.00
2018-07-23T09:25:00.316Z,99675.00
2018-07-23T09:27:31.078Z,99673.00
2018-07-23T09:30:01.675Z,99670.00
2018-07-23T09:32:32.571Z,99665.00
2018-07-23T09:35:03.699Z,99667.00
2018-07-23T09:37:37.064Z,99667.00
2018-07-23T09:40:07.962Z,99668.00
2018-07-23T09:42:39.092Z,99666.00
2018-07-23T09:45:10.024Z,99668.00
2018-07-23T09:47:40.897Z,99667.00
2018-07-23T09:50:11.499Z,99668.00
2018-07-23T09:52:42.209Z,99662.00
2018-07-23T09:55:13.948Z,99657.00
2018-07-23T09:57:44.866Z,99655.00
2018-07-23T10:00:20.099Z,99645.00
2018-07-23T10:02:51.293Z,99649.00
2018-07-23T10:05:22.201Z,99649.00
2018-07-23T10:07:53.805Z,99650.00
2018-07-23T10:10:25.443Z,99664.00
2018-07-23T10:12:56.693Z,99650.00
2018-07-23T10:15:27.940Z,99655.00
2018-07-23T10:17:59.228Z,99656.00
2018-07-23T10:20:30.351Z,99655.00
2018-07-23T10:23:01.531Z,99657.00
2018-07-23T10:25:33.017Z,99659.00
2018-07-23T10:28:03.951Z,99657.00
2018-07-23T10:30:34.735Z,99656.00
2018-07-23T10:33:05.971Z,99657.00
2018-07-23T10:35:37.340Z,99661.00
2018-07-23T10:38:08.256Z,99657.00
2018-07-23T10:40:39.144Z,99657.00
2018-07-23T10:43:10.144Z,99654.00
2018-07-23T10:45:41.098Z,99662.00
2018-07-23T10:48:12.312Z,99660.00
2018-07-23T10:50:43.540Z,99663.00
2018-07-23T10:53:14.141Z,99663.00
2018-07-23T10:55:44.987Z,99662.00
2018-07-23T10:58:15.230Z,99657.00
2018-07-23T11:00:45.868Z,99664.00
2018-07-23T11:03:17.092Z,99658.00
2018-07-23T11:05:47.998Z,99659.00
2018-07-23T11:08:18.352Z,99660.00
2018-07-23T11:10:49.008Z,99657.00
2018-07-23T11:13:19.464Z,99655.00
2018-07-23T11:15:50.735Z,99658.00
2018-07-23T11:18:22.291Z,99657.00
2018-07-23T11:20:53.477Z,99659.00
2018-07-23T11:23:24.580Z,99658.00
2018-07-23T11:25:55.252Z,99658.00
2018-07-23T11:28:25.360Z,99653.00
2018-07-23T11:30:56.292Z,99655.00
2018-07-23T11:33:27.214Z,99653.00
2018-07-23T11:35:57.915Z,99651.00
2018-07-23T11:38:28.637Z,99650.00
2018-07-23T11:40:59.535Z,99651.00
2018-07-23T11:43:30.744Z,99650.00
2018-07-23T11:46:01.581Z,99645.00
2018-07-23T11:48:31.956Z,99642.00
2018-07-23T11:51:02.741Z,99643.00
2018-07-23T11:53:34.044Z,99639.00
2018-07-23T11:56:04.815Z,99639.00
2018-07-23T11:58:35.432Z,99634.00
2018-07-23T12:01:07.562Z,99636.00
2018-07-23T12:03:38.728Z,99634.00
2018-07-23T12:06:10.185Z,99631.00
2018-07-23T12:08:41.864Z,99627.00
2018-07-23T12:11:12.638Z,99622.00
2018-07-23T12:13:44.051Z,99619.00
2018-07-23T12:16:14.263Z,99618.00
2018-07-23T12:18:45.515Z,99616.00
2018-07-23T12:21:16.623Z,99614.00
2018-07-23T12:23:47.848Z,99612.00
2018-07-23T12:26:18.732Z,99615.00
2018-07-23T12:28:49.675Z,99616.00
2018-07-23T12:31:20.735Z,99613.00
2018-07-23T12:33:52.223Z,99611.00
2018-07-23T12:36:23.407Z,99610.00
2018-07-23T12:38:55.167Z,99612.00
2018-07-23T12:41:26.056Z,99610.00
2018-07-23T12:43:57.313Z,99615.00
2018-07-23T12:46:33.507Z,99612.00
2018-07-23T12:49:09.759Z,99611.00
2018-07-23T12:51:40.607Z,99611.00
2018-07-23T12:54:11.466Z,99606.00
2018-07-23T12:56:42.583Z,99606.00
2018-07-23T12:59:13.684Z,99608.00
2018-07-23T13:01:45.268Z,99609.00
2018-07-23T13:04:21.468Z,99603.00
2018-07-23T13:06:52.919Z,99607.00
2018-07-23T13:09:24.910Z,99602.00
2018-07-23T13:11:55.670Z,99601.00
2018-07-23T13:14:28.095Z,99595.00
2018-07-23T13:16:59.212Z,99593.00
2018-07-23T13:19:30.357Z,99589.00
2018-07-23T13:22:00.706Z,99590.00
2018-07-23T13:24:30.939Z,99588.00
2018-07-23T13:27:02.152Z,99593.00
2018-07-23T13:29:33.145Z,99593.00
2018-07-23T13:32:04.536Z,99591.00
2018-07-23T13:34:35.583Z,99589.00
2018-07-23T13:37:07.032Z,99591.00
2018-07-23T13:39:38.195Z,99586.00
2018-07-23T13:42:09.735Z,99581.00
2018-07-23T13:44:40.652Z,99580.00
2018-07-23T13:47:11.700Z,99574.00
2018-07-23T13:49:42.056Z,99576.00
2018-07-23T13:52:13.743Z,99573.00
2018-07-23T13:54:44.417Z,99575.00
2018-07-23T13:57:16.583Z,99571.00
2018-07-23T13:59:46.654Z,99569.00
2018-07-23T14:02:17.740Z,99571.00
2018-07-23T14:04:48.815Z,99572.00
2018-07-23T14:07:19.725Z,99562.00
2018-07-23T14:09:51.124Z,99568.00
2018-07-23T14:12:21.752Z,99563.00
2018-07-23T14:14:52.655Z,99562.00
2018-07-23T14:17:23.832Z,99557.00
2018-07-23T14:19:54.188Z,99556.00
2018-07-23T14:22:25.347Z,99551.00
2018-07-23T14:24:56.700Z,99552.00
2018-07-23T14:27:27.053Z,99550.00
2018-07-23T14:29:57.601Z,99551.00
2018-07-23T14:32:28.477Z,99549.00
2018-07-23T14:35:00.439Z,99545.00
2018-07-23T14:37:31.879Z,99543.00
2018-07-23T14:40:03.168Z,99538.00
2018-07-23T14:42:34.033Z,99539.00
2018-07-23T14:45:05.283Z,99532.00
2018-07-23T14:47:36.027Z,99534.00
2018-07-23T14:50:07.201Z,99532.00
2018-07-23T14:52:38.184Z,99529.00
2018-07-23T14:55:09.108Z,99527.00
2018-07-23T14:57:40.583Z,99524.00
2018-07-23T15:00:11.951Z,99525.00
2018-07-23T15:02:42.726Z,99525.00
2018-07-23T15:05:13.504Z,99522.00
2018-07-23T15:07:44.599Z,99519.00
2018-07-23T15:10:15.569Z,99516.00
2018-07-23T15:12:46.447Z,99523.00
2018-07-23T15:15:18.233Z,99515.00
2018-07-23T15:17:49.916Z,99511.00
2018-07-23T15:20:20.545Z,99513.00
2018-07-23T15:22:51.248Z,99516.00
2018-07-23T15:25:22.287Z,99521.00
2018-07-23T15:27:53.522Z,99516.00
2018-07-23T15:30:24.391Z,99518.00
2018-07-23T15:32:55.596Z,99520.00
2018-07-23T15:35:26.060Z,99518.00
2018-07-23T15:37:56.804Z,99518.00
2018-07-23T15:40:31.796Z,99520.00
2018-07-23T15:43:03.180Z,99513.00
2018-07-23T15:45:34.529Z,99514.00
2018-07-23T15:48:05.117Z,99508.00
2018-07-23T15:50:36.355Z,99510.00
2018-07-23T15:53:12.163Z,99504.00
2018-07-23T15:55:43.267Z,99502.00
2018-07-23T15:58:13.608Z,99510.00
2018-07-23T16:00:44.215Z,99507.00
2018-07-23T16:03:15.700Z,99505.00
2018-07-23T16:05:46.647Z,99504.00
2018-07-23T16:08:17.465Z,99502.00
2018-07-23T16:10:48.228Z,99501.00
2018-07-23T16:13:19.484Z,99501.00
2018-07-23T16:15:50.356Z,99503.00
2018-07-23T16:18:22.040Z,99495.00
2018-07-23T16:20:52.984Z,99497.00
2018-07-23T16:23:24.153Z,99495.00
2018-07-23T16:25:54.864Z,99498.00
2018-07-23T16:28:25.735Z,99499.00
2018-07-23T16:30:55.846Z,99497.00
2018-07-23T16:33:26.331Z,99494.00
2018-07-23T16:35:56.949Z,99500.00
2018-07-23T16:38:27.409Z,99498.00
2018-07-23T16:40:58.012Z,99498.00
2018-07-23T16:43:28.335Z,99494.00
2018-07-23T16:45:58.971Z,99490.00
2018-07-23T16:48:29.592Z,99492.00
2018-07-23T16:51:00.524Z,99493.00
2018-07-23T16:53:31.205Z,99492.00
2018-07-23T16:56:01.596Z,99488.00
2018-07-23T16:58:31.807Z,99483.00
2018-07-23T17:01:02.652Z,99479.00
2018-07-23T17:03:33.632Z,99482.00
2018-07-23T17:06:03.739Z,99480.00
2018-07-23T17:08:33.944Z,99482.00
2018-07-23T17:11:05.012Z,99483.00
2018-07-23T17:13:36.353Z,99484.00
2018-07-23T17:16:06.933Z,99484.00
2018-07-23T17:18:37.983Z,99488.00
2018-07-23T17:21:09.457Z,99496.00
2018-07-23T17:23:40.712Z,99497.00
2018-07-23T17:26:11.080Z,99493.00
2018-07-23T17:28:41.940Z,99494.00
2018-07-23T17:31:12.324Z,99496.00
2018-07-23T17:33:43.228Z,99493.00
2018-07-23T17:36:13.619Z,99495.00
2018-07-23T17:38:44.509Z,99493.00
2018-07-23T17:41:15.287Z,99489.00
2018-07-23T17:43:46.151Z,99486.00
2018-07-23T17:46:17.376Z,99488.00
2018-07-23T17:48:48.263Z,99491.00
2018-07-23T17:51:18.671Z,99490.00
2018-07-23T17:53:48.991Z,99491.00
2018-07-23T17:56:19.403Z,99492.00
2018-07-23T17:58:49.879Z,99492.00
2018-07-23T18:01:20.270Z,99489.00
2018-07-23T18:03:50.596Z,99492.00
2018-07-23T18:06:21.547Z,99491.00
2018-07-23T18:08:52.371Z,99491.00
2018-07-23T18:11:22.520Z,99491.00
2018-07-23T18:13:53.179Z,99488.00
2018-07-23T18:16:23.548Z,99492.00
2018-07-23T18:18:54.081Z,99488.00
2018-07-23T18:21:25.208Z,99490.00
2018-07-23T18:23:55.532Z,99495.00
2018-07-23T18:26:26.407Z,99500.00
2018-07-23T18:28:56.984Z,99499.00
2018-07-23T18:31:27.900Z,99500.00
2018-07-23T18:33:58.485Z,99499.00
2018-07-23T18:36:28.843Z,99500.00
2018-07-23T18:38:59.171Z,99506.00
2018-07-23T18:41:29.528Z,99504.00
2018-07-23T18:43:59.856Z,99511.00
2018-07-23T18:46:30.215Z,99510.00
2018-07-23T18:49:31.812Z,99511.00
2018-07-23T18:52:02.397Z,99513.00
2018-07-23T18:54:33.423Z,99517.00
2018-07-23T18:57:05.014Z,99524.00
2018-07-23T18:59:35.790Z,99525.00
2018-07-23T19:02:08.236Z,99526.00
2018-07-23T19:04:38.788Z,99527.00
2018-07-23T19:07:10.187Z,99528.00
2018-07-23T19:09:40.771Z,99528.00
2018-07-23T19:12:11.764Z,99532.00
2018-07-23T19:14:42.340Z,99538.00
2018-07-23T19:17:14.461Z,99544.00
2018-07-23T19:19:45.100Z,99552.00
2018-07-23T19:22:15.463Z,99553.00
2018-07-23T19:24:45.491Z,99551.00
2018-07-23T19:27:16.264Z,99553.00
2018-07-23T19:29:46.813Z,99550.00
2018-07-23T19:32:17.123Z,99554.00
2018-07-23T19:34:47.332Z,99560.00
2018-07-23T19:37:17.687Z,99562.00
2018-07-23T19:39:48.610Z,99566.00
2018-07-23T19:42:19.269Z,99568.00
2018-07-23T19:44:50.318Z,99573.00
2018-07-23T19:47:20.383Z,99574.00
2018-07-23T19:49:50.856Z,99574.00
2018-07-23T19:52:22.032Z,99577.00
2018-07-23T19:54:52.424Z,99576.00
2018-07-23T19:57:23.336Z,99583.00
2018-07-23T19:59:53.959Z,99588.00
2018-07-23T20:02:24.657Z,99588.00
2018-07-23T20:04:54.999Z,99586.00
2018-07-23T20:07:25.898Z,99590.00
2018-07-23T20:09:55.922Z,99590.00
2018-07-23T20:12:25.883Z,99589.00
2018-07-23T20:14:56.340Z,99591.00
2018-07-23T20:17:26.932Z,99589.00
2018-07-23T20:19:57.304Z,99590.00
2018-07-23T20:22:27.888Z,99594.00
2018-07-23T20:24:58.832Z,99601.00
2018-07-23T20:27:29.799Z,99597.00
2018-07-23T20:30:00.187Z,99601.00
2018-07-23T20:32:30.580Z,99599.00
2018-07-23T20:35:01.554Z,99598.00
2018-07-23T20:37:32.701Z,99596.00
2018-07-23T20:40:03.427Z,99596.00
2018-07-23T20:42:33.759Z,99593.00
2018-07-23T20:45:04.499Z,99593.00
2018-07-23T20:47:34.829Z,99594.00
2018-07-23T20:50:05.550Z,99592.00
2018-07-23T20:52:36.159Z,99592.00
2018-07-23T20:55:07.103Z,99600.00
2018-07-23T20:57:37.748Z,99597.00
2018-07-23T21:00:09.696Z,99600.00
2018-07-23T21:02:40.026Z,99596.00
2018-07-23T21:05:10.967Z,99598.00
2018-07-23T21:07:41.411Z,99597.00
2018-07-23T21:10:12.023Z,99596.00
2018-07-23T21:12:43.156Z,99597.00
2018-07-23T21:15:13.522Z,99598.00
2018-07-23T21:17:44.296Z,99598.00
2018-07-23T21:20:14.543Z,99595.00
2018-07-23T21:22:45.164Z,99598.00
2018-07-23T21:25:15.572Z,99593.00
2018-07-23T21:27:45.802Z,99592.00
2018-07-23T21:30:16.487Z,99593.00
2018-07-23T21:32:46.554Z,99594.00
2018-07-23T21:35:17.040Z,99591.00
2018-07-23T21:37:47.615Z,99599.00
2018-07-23T21:40:18.449Z,99594.00
2018-07-23T21:42:49.123Z,99597.00
2018-07-23T21:45:19.980Z,99596.00
2018-07-23T21:47:50.602Z,99592.00
2018-07-23T21:50:21.542Z,99592.00
2018-07-23T21:52:52.191Z,99595.00
2018-07-23T21:55:26.024Z,99598.00
2018-07-23T21:57:56.586Z,99594.00
2018-07-23T22:00:26.952Z,99593.00
2018-07-23T22:02:57.279Z,99591.00
2018-07-23T22:05:27.937Z,99597.00
2018-07-23T22:07:58.280Z,99591.00
2018-07-23T22:10:28.634Z,99594.00
2018-07-23T22:12:59.489Z,99586.00
2018-07-23T22:15:30.272Z,99592.00
2018-07-23T22:18:00.327Z,99588.00
2018-07-23T22:20:30.903Z,99591.00
2018-07-23T22:23:02.024Z,99593.00
2018-07-23T22:25:32.342Z,99598.00
2018-07-23T22:28:02.707Z,99596.00
2018-07-23T22:30:33.107Z,99597.00
2018-07-23T22:33:03.452Z,99596.00
2018-07-23T22:35:33.803Z,99595.00
2018-07-23T22:38:04.135Z,99598.00
2018-07-23T22:40:34.753Z,99596.00
2018-07-23T22:43:05.089Z,99596.00
2018-07-23T22:45:35.319Z,99597.00
2018-07-23T22:48:05.943Z,99593.00
2018-07-23T22:50:36.626Z,99590.00
2018-07-23T22:53:07.648Z,99590.00
2018-07-23T22:55:38.352Z,99590.00
2018-07-23T22:58:09.016Z,99588.00
2018-07-23T23:00:39.716Z,99591.00
2018-07-23T23:03:10.303Z,99593.00
2018-07-23T23:05:40.903Z,99591.00
2018-07-23T23:08:11.528Z,99586.00
2018-07-23T23:10:41.932Z,99586.00
2018-07-23T23:13:12.835Z,99592.00
2018-07-23T23:15:43.431Z,99586.00
2018-07-23T23:18:13.635Z,99585.00
2018-07-23T23:20:43.996Z,99582.00
2018-07-23T23:23:14.567Z,99578.00
2018-07-23T23:25:44.936Z,99582.00
2018-07-23T23:28:15.258Z,99580.00
2018-07-23T23:30:45.919Z,99582.00
2018-07-23T23:33:16.808Z,99579.00
2018-07-23T23:35:47.439Z,99577.00
2018-07-23T23:38:18.116Z,99581.00
2018-07-23T23:40:48.504Z,99582.00
2018-07-23T23:43:19.449Z,99578.00
2018-07-23T23:45:49.812Z,99577.00
2018-07-23T23:48:20.389Z,99576.00
2018-07-23T23:50:50.931Z,99572.00
2018-07-23T23:53:21.851Z,99574.00
2018-07-23T23:55:52.208Z,99570.00
2018-07-23T23:58:22.531Z,99570.00
